Time;durP1;ratioP1;P1;durP2;ratioP2;P2;SDS_P1;SDS_P2;PMS_P1;PMS_P2;Temp;Humidity;BMP_temperature;BMP_pressure;BME280_temperature;BME280_humidity;BME280_pressure;Samples;Min_cycle;Max_cycle;Signal;HPM_P1;HPM_P2
2021/06/29 00:01:33;;;;;;;1.52;1.10;;;17.90;99.90;;;;;;5015818;28;20069;-88
2021/06/29 00:03:59;;;;;;;1.38;1.02;;;17.90;99.90;;;;;;5032181;28;20518;-86
2021/06/29 00:06:25;;;;;;;1.75;1.20;;;17.90;99.90;;;;;;5015501;28;20040;-90
2021/06/29 00:08:50;;;;;;;1.15;1.00;;;17.90;99.90;;;;;;5016362;28;20029;-89
2021/06/29 00:11:16;;;;;;;2.00;0.95;;;17.80;99.90;;;;;;5048582;28;20022;-90
2021/06/29 00:13:45;;;;;;;1.50;1.00;;;17.80;99.90;;;;;;5032268;28;20030;-90
2021/06/29 00:16:12;;;;;;;2.40;1.20;;;17.80;99.90;;;;;;5033945;28;20383;-89
2021/06/29 00:18:38;;;;;;;2.40;1.40;;;17.70;99.90;;;;;;5017982;28;20044;-90
2021/06/29 00:21:04;;;;;;;2.30;1.20;;;17.70;99.90;;;;;;5033598;28;20033;-90
2021/06/29 00:23:30;;;;;;;2.05;1.13;;;17.70;99.90;;;;;;5033843;28;20127;-90
2021/06/29 00:25:55;;;;;;;1.55;1.40;;;17.70;99.90;;;;;;5000851;28;20034;-90
2021/06/29 00:28:21;;;;;;;2.88;1.40;;;17.60;99.90;;;;;;5033562;28;20038;-89
2021/06/29 00:30:50;;;;;;;1.48;1.38;;;17.60;99.90;;;;;;5033612;28;20534;-90
2021/06/29 00:33:16;;;;;;;1.98;1.20;;;17.60;99.90;;;;;;5033478;28;20033;-90
2021/06/29 00:35:42;;;;;;;1.65;1.20;;;17.60;99.90;;;;;;5032431;28;20038;-90
2021/06/29 00:38:07;;;;;;;2.90;1.25;;;17.60;99.90;;;;;;5017219;28;20042;-90
2021/06/29 00:40:33;;;;;;;1.42;1.27;;;17.60;99.90;;;;;;5033272;28;20029;-91
2021/06/29 00:42:59;;;;;;;1.85;1.40;;;17.60;99.90;;;;;;5000725;28;20484;-90
2021/06/29 00:45:25;;;;;;;1.65;1.55;;;17.60;99.90;;;;;;5000687;28;20029;-90
2021/06/29 00:47:50;;;;;;;1.92;1.45;;;17.60;99.90;;;;;;5033300;28;20124;-90
2021/06/29 00:50:16;;;;;;;1.60;1.50;;;17.60;99.90;;;;;;5000904;28;20087;-90
2021/06/29 00:52:42;;;;;;;1.52;1.35;;;17.70;99.90;;;;;;5016673;28;20041;-89
2021/06/29 00:55:11;;;;;;;1.45;1.33;;;17.70;99.90;;;;;;5029876;28;20464;-88
2021/06/29 00:57:37;;;;;;;1.55;1.45;;;17.70;99.90;;;;;;4980668;28;20038;-88
2021/06/29 01:00:08;;;;;;;1.60;1.50;;;17.70;99.90;;;;;;4995915;28;20038;-87
2021/06/29 01:02:34;;;;;;;4.15;1.67;;;17.60;99.90;;;;;;5014044;28;20048;-89
2021/06/29 01:05:02;;;;;;;1.92;1.73;;;17.60;99.90;;;;;;5016645;28;20484;-89
2021/06/29 01:07:29;;;;;;;1.88;1.77;;;17.60;99.90;;;;;;5032752;28;20084;-89
2021/06/29 01:09:55;;;;;;;4.35;1.70;;;17.50;99.90;;;;;;5032184;28;20530;-89
2021/06/29 01:12:21;;;;;;;1.58;1.48;;;17.50;99.90;;;;;;5015890;28;20072;-88
2021/06/29 01:14:47;;;;;;;2.10;1.83;;;17.40;99.90;;;;;;4980323;28;20057;-88
2021/06/29 01:17:12;;;;;;;1.65;1.55;;;17.40;99.90;;;;;;4996670;28;20141;-89
2021/06/29 01:22:11;;;;;;;2.88;2.05;;;17.40;99.90;;;;;;5012747;28;20681;-90
2021/06/29 01:24:37;;;;;;;2.13;1.92;;;17.30;99.90;;;;;;4996404;28;20053;-89
2021/06/29 01:30:59;;;;;;;2.28;2.03;;;17.20;99.90;;;;;;4996673;28;20068;-89
2021/06/29 01:32:22;;;;;;;2.33;1.90;;;17.30;99.90;;;;;;5010230;28;20041;-88
2021/06/29 01:34:48;;;;;;;1.77;1.67;;;17.30;99.90;;;;;;4996193;28;20461;-90
2021/06/29 01:37:16;;;;;;;2.20;1.98;;;17.30;99.90;;;;;;4996056;28;20443;-89
2021/06/29 01:40:02;;;;;;;2.33;2.00;;;17.30;99.90;;;;;;4980395;28;20137;-89
2021/06/29 01:42:28;;;;;;;2.65;1.95;;;17.30;99.90;;;;;;4996198;28;20044;-89
2021/06/29 01:44:54;;;;;;;2.10;1.80;;;17.30;99.90;;;;;;4979734;28;20041;-89
2021/06/29 01:47:28;;;;;;;2.00;1.80;;;17.30;99.90;;;;;;4996184;28;20108;-88
2021/06/29 01:49:55;;;;;;;2.63;1.95;;;17.30;99.90;;;;;;4996475;28;20026;-90
2021/06/29 01:52:21;;;;;;;2.92;1.85;;;17.30;99.90;;;;;;4995811;28;20032;-89
2021/06/29 01:54:46;;;;;;;2.08;1.80;;;17.30;99.90;;;;;;4979652;28;20488;-89
2021/06/29 01:57:17;;;;;;;1.95;1.40;;;17.30;99.90;;;;;;4996213;28;20044;-89
2021/06/29 01:59:48;;;;;;;1.85;1.73;;;17.30;99.90;;;;;;4996107;28;20080;-89
2021/06/29 02:02:14;;;;;;;2.35;1.88;;;17.40;99.90;;;;;;4995958;28;20461;-89
2021/06/29 02:04:40;;;;;;;2.08;1.90;;;17.40;99.90;;;;;;4996006;28;20045;-90
2021/06/29 02:07:06;;;;;;;1.90;1.70;;;17.40;99.90;;;;;;4979476;28;20040;-89
2021/06/29 02:09:33;;;;;;;2.60;2.17;;;17.30;99.90;;;;;;4979851;28;20121;-89
2021/06/29 02:11:58;;;;;;;2.20;1.90;;;17.30;99.90;;;;;;4979547;28;20084;-89
2021/06/29 02:14:24;;;;;;;2.00;1.35;;;17.30;99.90;;;;;;4995509;28;20029;-88
2021/06/29 02:16:50;;;;;;;1.95;1.85;;;17.30;99.90;;;;;;4979270;28;20048;-89
2021/06/29 02:19:16;;;;;;;1.75;1.63;;;17.30;99.90;;;;;;4979599;28;20049;-88
2021/06/29 02:21:41;;;;;;;2.60;2.10;;;17.30;99.90;;;;;;4979462;28;20119;-89
2021/06/29 02:24:07;;;;;;;3.47;2.00;;;17.30;99.90;;;;;;4979680;28;20073;-88
2021/06/29 02:26:33;;;;;;;2.10;1.90;;;17.40;99.90;;;;;;4995436;28;20022;-89
2021/06/29 02:28:59;;;;;;;2.35;2.15;;;17.30;99.90;;;;;;4995268;28;20510;-88
2021/06/29 02:32:04;;;;;;;2.88;2.33;;;17.30;99.90;;;;;;4994468;28;20092;-89
2021/06/29 02:34:29;;;;;;;2.22;2.03;;;17.40;99.90;;;;;;4995073;28;20034;-88
2021/06/29 02:36:55;;;;;;;2.50;2.30;;;17.40;99.90;;;;;;4978723;28;20053;-89
2021/06/29 02:39:21;;;;;;;2.35;2.15;;;17.30;99.90;;;;;;4979247;28;20026;-88
2021/06/29 02:41:47;;;;;;;2.10;1.95;;;17.30;99.90;;;;;;4978472;28;20044;-89
2021/06/29 02:44:12;;;;;;;2.80;2.47;;;17.40;99.90;;;;;;4978797;28;20793;-88
2021/06/29 02:46:38;;;;;;;2.38;2.17;;;17.40;99.90;;;;;;4978912;28;20058;-88
2021/06/29 02:49:04;;;;;;;2.80;2.42;;;17.40;99.90;;;;;;4978699;28;20069;-88
2021/06/29 02:51:29;;;;;;;4.03;2.75;;;17.40;99.90;;;;;;4978783;28;20055;-88
2021/06/29 02:53:55;;;;;;;2.13;1.95;;;17.40;99.90;;;;;;4994501;28;20026;-89
2021/06/29 02:56:39;;;;;;;2.53;2.33;;;17.30;99.90;;;;;;4978694;28;20092;-88
2021/06/29 02:59:14;;;;;;;3.58;2.20;;;17.30;99.90;;;;;;5007828;28;20025;-88
2021/06/29 03:01:41;;;;;;;2.50;2.30;;;17.30;99.90;;;;;;4994892;28;20142;-90
2021/06/29 03:04:07;;;;;;;2.65;2.45;;;17.20;99.90;;;;;;4995207;28;20034;-88
2021/06/29 03:06:33;;;;;;;2.63;2.42;;;17.10;99.90;;;;;;4994934;28;20064;-88
2021/06/29 03:09:00;;;;;;;2.45;2.25;;;17.20;99.90;;;;;;5027763;28;20022;-88
2021/06/29 03:11:26;;;;;;;4.22;2.78;;;17.10;99.90;;;;;;4994963;28;20073;-89
2021/06/29 03:13:52;;;;;;;2.80;2.60;;;17.20;99.90;;;;;;5027652;28;20026;-89
2021/06/29 03:16:18;;;;;;;2.75;2.55;;;17.10;99.90;;;;;;5019241;28;20079;-88
2021/06/29 03:18:44;;;;;;;3.17;2.17;;;17.20;99.90;;;;;;5014515;28;20112;-88
2021/06/29 03:21:10;;;;;;;2.90;2.60;;;17.20;99.90;;;;;;5013701;28;20037;-88
2021/06/29 03:23:37;;;;;;;3.38;2.85;;;17.20;99.90;;;;;;5013803;28;20036;-89
2021/06/29 03:26:03;;;;;;;2.70;2.50;;;17.20;99.90;;;;;;5013978;28;20484;-89
2021/06/29 03:28:29;;;;;;;2.75;2.55;;;17.20;99.90;;;;;;5014329;28;20026;-88
2021/06/29 03:30:56;;;;;;;3.05;2.83;;;17.20;99.90;;;;;;5011597;28;20175;-89
2021/06/29 03:33:22;;;;;;;3.25;2.60;;;17.20;99.90;;;;;;5013870;28;20506;-88
2021/06/29 03:35:54;;;;;;;2.67;2.47;;;17.30;99.90;;;;;;5027132;28;20038;-89
2021/06/29 03:38:21;;;;;;;3.03;2.75;;;17.20;99.90;;;;;;4979244;28;20052;-89
2021/06/29 03:40:47;;;;;;;2.63;2.42;;;17.20;99.90;;;;;;4978030;28;20113;-88
2021/06/29 03:43:12;;;;;;;4.25;2.72;;;17.20;99.90;;;;;;4993978;28;20034;-88
2021/06/29 03:45:38;;;;;;;2.85;2.45;;;17.20;99.90;;;;;;4994127;28;20040;-88
2021/06/29 03:48:04;;;;;;;3.50;2.50;;;17.20;99.90;;;;;;5014136;28;20056;-89
2021/06/29 03:50:30;;;;;;;3.05;2.47;;;17.20;99.90;;;;;;4997495;28;20088;-89
2021/06/29 03:52:56;;;;;;;4.05;3.00;;;17.30;99.90;;;;;;4997140;28;20042;-88
2021/06/29 03:55:22;;;;;;;3.00;2.70;;;17.30;99.90;;;;;;5014010;28;20038;-88
2021/06/29 03:57:48;;;;;;;2.88;2.63;;;17.30;99.90;;;;;;5014010;28;20068;-88
2021/06/29 04:00:15;;;;;;;2.50;2.30;;;17.20;99.90;;;;;;5046512;28;20060;-88
2021/06/29 04:02:40;;;;;;;3.72;2.83;;;17.30;99.90;;;;;;4996993;28;20504;-88
2021/06/29 04:05:08;;;;;;;3.40;2.60;;;17.30;99.90;;;;;;5013554;28;20112;-88
2021/06/29 04:07:35;;;;;;;2.60;2.40;;;17.30;99.90;;;;;;5013493;28;20477;-89
2021/06/29 04:10:06;;;;;;;2.60;2.40;;;17.30;99.90;;;;;;5013080;28;20033;-88
2021/06/29 04:12:31;;;;;;;2.45;2.25;;;17.30;99.90;;;;;;5016175;28;20059;-88
2021/06/29 04:14:57;;;;;;;2.30;2.10;;;17.30;99.90;;;;;;5014057;28;20631;-88
2021/06/29 04:17:23;;;;;;;2.90;2.60;;;17.30;99.90;;;;;;5013830;28;20404;-88
2021/06/29 04:19:49;;;;;;;3.33;2.28;;;17.30;99.90;;;;;;5013523;28;20037;-88
2021/06/29 04:22:15;;;;;;;3.13;2.13;;;17.30;99.90;;;;;;5013408;28;20516;-88
2021/06/29 04:24:41;;;;;;;2.30;2.10;;;17.40;99.90;;;;;;5013721;28;20034;-89
2021/06/29 04:27:07;;;;;;;2.70;2.50;;;17.40;99.90;;;;;;4997527;28;20033;-88
2021/06/29 04:29:32;;;;;;;2.83;2.63;;;17.40;99.90;;;;;;5013035;28;20026;-89
2021/06/29 04:31:58;;;;;;;2.40;2.20;;;17.40;99.90;;;;;;5011615;28;20492;-88
2021/06/29 04:34:24;;;;;;;2.45;2.25;;;17.40;99.90;;;;;;4997470;28;20101;-89
2021/06/29 04:36:50;;;;;;;2.17;2.08;;;17.40;99.90;;;;;;5013383;28;20473;-88
2021/06/29 04:39:15;;;;;;;2.95;2.67;;;17.50;99.90;;;;;;4996696;28;20073;-88
2021/06/29 04:41:41;;;;;;;2.70;2.50;;;17.50;99.90;;;;;;5013240;28;20042;-89
2021/06/29 04:44:07;;;;;;;2.28;2.10;;;17.50;99.90;;;;;;5012747;28;20033;-88
2021/06/29 04:46:33;;;;;;;2.50;2.30;;;17.50;99.90;;;;;;5013270;28;20449;-88
2021/06/29 04:48:59;;;;;;;2.88;2.67;;;17.50;99.90;;;;;;5013071;28;20053;-87
2021/06/29 04:51:25;;;;;;;3.95;2.15;;;17.50;99.90;;;;;;5016291;28;20103;-87
2021/06/29 04:53:50;;;;;;;2.75;2.55;;;17.50;99.90;;;;;;4983217;28;20040;-88
2021/06/29 04:56:17;;;;;;;2.88;2.67;;;17.50;99.90;;;;;;5016539;28;20563;-88
2021/06/29 04:58:52;;;;;;;3.22;2.92;;;17.50;99.90;;;;;;5034202;28;20033;-88
2021/06/29 05:01:18;;;;;;;;;;;17.50;99.90;;;;;;5016386;28;20048;-88
2021/06/29 05:03:44;;;;;;;4.90;2.85;;;17.60;99.90;;;;;;5019207;28;19910;-88
2021/06/29 05:06:10;;;;;;;3.22;2.47;;;17.70;99.90;;;;;;4980357;28;20042;-88
2021/06/29 05:08:35;;;;;;;2.75;2.50;;;17.70;99.90;;;;;;5012331;28;20022;-88
2021/06/29 05:11:02;;;;;;;2.97;2.67;;;17.80;99.90;;;;;;4999560;28;20458;-88
2021/06/29 05:13:27;;;;;;;2.60;2.40;;;17.80;99.90;;;;;;5015322;28;20030;-87
2021/06/29 05:15:54;;;;;;;2.90;2.65;;;17.80;99.90;;;;;;5015627;28;20057;-88
2021/06/29 05:18:19;;;;;;;2.88;2.53;;;17.80;99.90;;;;;;5031991;28;20041;-88
2021/06/29 05:20:45;;;;;;;3.00;2.65;;;17.80;99.90;;;;;;4998833;28;20030;-88
2021/06/29 05:23:11;;;;;;;4.18;2.58;;;17.80;99.90;;;;;;5014760;28;20614;-87
2021/06/29 05:25:37;;;;;;;2.10;2.00;;;17.80;99.90;;;;;;5032052;28;20029;-87
2021/06/29 05:28:03;;;;;;;3.20;2.58;;;17.70;99.90;;;;;;5028809;28;20026;-88
2021/06/29 05:30:29;;;;;;;2.80;2.60;;;17.70;99.90;;;;;;4979098;28;20053;-88
2021/06/29 05:32:55;;;;;;;3.92;2.78;;;17.80;99.90;;;;;;4962842;28;20029;-88
2021/06/29 05:35:21;;;;;;;3.63;2.83;;;17.70;99.90;;;;;;5013956;28;20435;-89
2021/06/29 05:37:47;;;;;;;3.20;2.88;;;17.70;99.90;;;;;;5000934;28;20083;-89
2021/06/29 05:40:13;;;;;;;3.38;3.08;;;17.70;99.90;;;;;;4998137;28;20033;-90
2021/06/29 05:42:39;;;;;;;3.58;2.83;;;17.70;99.90;;;;;;5047551;28;20021;-90
2021/06/29 05:45:07;;;;;;;3.05;2.75;;;17.70;99.90;;;;;;5007983;28;20037;-90
2021/06/29 05:47:35;;;;;;;5.32;3.05;;;17.70;99.90;;;;;;5017766;28;20583;-90
2021/06/29 05:50:04;;;;;;;3.70;2.90;;;17.70;99.90;;;;;;5016552;28;20036;-90
2021/06/29 05:52:30;;;;;;;3.70;3.40;;;17.70;99.90;;;;;;5025960;28;20121;-90
2021/06/29 05:54:56;;;;;;;5.43;2.88;;;17.70;99.90;;;;;;5014468;28;20026;-90
2021/06/29 05:57:22;;;;;;;3.03;2.75;;;17.60;99.90;;;;;;5015384;28;20403;-89
2021/06/29 05:59:48;;;;;;;3.45;3.15;;;17.60;99.90;;;;;;5010545;28;20042;-90
2021/06/29 06:02:15;;;;;;;3.50;3.20;;;17.60;99.90;;;;;;5015067;28;20025;-90
2021/06/29 06:04:41;;;;;;;3.30;3.00;;;17.60;99.90;;;;;;4999219;28;20025;-91
2021/06/29 06:07:06;;;;;;;3.22;3.00;;;17.70;99.90;;;;;;5014327;28;20108;-90
2021/06/29 06:09:33;;;;;;;3.65;3.35;;;17.70;99.90;;;;;;5029711;28;20495;-91
2021/06/29 06:11:59;;;;;;;4.15;3.75;;;17.70;99.90;;;;;;5011859;28;20045;-90
2021/06/29 06:14:25;;;;;;;3.22;2.92;;;17.80;99.90;;;;;;5014533;28;20427;-90
2021/06/29 06:16:51;;;;;;;3.55;3.25;;;17.80;99.90;;;;;;5025676;28;20076;-90
2021/06/29 06:19:17;;;;;;;4.82;3.67;;;17.80;99.90;;;;;;5014230;28;20454;-90
2021/06/29 06:21:42;;;;;;;4.03;3.55;;;17.90;99.90;;;;;;5031072;28;20480;-89
2021/06/29 06:24:08;;;;;;;3.35;2.97;;;17.90;99.90;;;;;;5030811;28;20381;-91
2021/06/29 06:26:34;;;;;;;4.93;3.75;;;17.90;99.90;;;;;;5029898;28;20037;-89
2021/06/29 06:29:00;;;;;;;3.55;3.17;;;17.90;99.90;;;;;;4977944;28;20034;-89
2021/06/29 06:31:27;;;;;;;3.85;3.55;;;17.90;99.90;;;;;;5025949;28;20021;-89
2021/06/29 06:33:53;;;;;;;3.75;3.45;;;18.00;99.90;;;;;;5012864;28;20033;-89
2021/06/29 06:36:19;;;;;;;3.63;3.33;;;18.00;99.90;;;;;;5018989;28;20034;-90
2021/06/29 06:38:45;;;;;;;3.60;3.30;;;18.10;99.90;;;;;;5010076;28;20083;-90
2021/06/29 06:41:14;;;;;;;4.10;3.70;;;18.10;99.90;;;;;;5005654;28;20045;-90
2021/06/29 06:43:42;;;;;;;4.35;3.42;;;18.20;99.90;;;;;;4989617;28;20436;-90
2021/06/29 06:46:09;;;;;;;4.13;3.78;;;18.20;99.90;;;;;;4978229;28;20038;-90
2021/06/29 06:48:36;;;;;;;3.60;3.30;;;18.30;99.90;;;;;;4993242;28;20030;-91
2021/06/29 06:51:03;;;;;;;4.18;3.35;;;18.40;99.90;;;;;;5021314;28;20112;-90
2021/06/29 06:53:49;;;;;;;2.78;2.58;;;18.50;99.90;;;;;;5030288;28;20052;-89
2021/06/29 06:56:15;;;;;;;4.20;3.13;;;18.70;99.90;;;;;;5012107;28;20037;-90
2021/06/29 06:58:45;;;;;;;4.20;3.80;;;18.90;99.90;;;;;;5013757;28;20037;-90
2021/06/29 07:01:13;;;;;;;3.05;2.80;;;18.90;99.90;;;;;;5023309;28;20029;-90
2021/06/29 07:03:39;;;;;;;5.35;3.00;;;18.90;99.90;;;;;;5020404;28;20034;-92
2021/06/29 07:06:05;;;;;;;2.88;2.67;;;18.80;99.90;;;;;;5026900;28;20025;-91
2021/06/29 07:08:32;;;;;;;3.63;2.88;;;18.70;99.90;;;;;;5028251;28;20025;-91
2021/06/29 07:10:59;;;;;;;3.30;3.03;;;18.70;99.90;;;;;;5017005;28;20056;-92
2021/06/29 07:13:25;;;;;;;3.10;2.90;;;18.70;99.90;;;;;;5031240;28;20124;-89
2021/06/29 07:15:51;;;;;;;3.60;3.30;;;18.90;99.90;;;;;;5032819;28;20156;-90
2021/06/29 07:18:18;;;;;;;3.63;2.70;;;19.20;99.90;;;;;;5039147;28;20080;-89
2021/06/29 07:20:45;;;;;;;2.83;2.63;;;19.70;99.90;;;;;;4994100;28;20033;-89
2021/06/29 07:23:11;;;;;;;3.58;3.28;;;20.10;99.90;;;;;;5013722;28;20033;-90
2021/06/29 07:25:38;;;;;;;2.90;2.70;;;20.30;99.90;;;;;;5021211;28;20025;-91
2021/06/29 07:28:04;;;;;;;3.00;2.40;;;20.50;99.90;;;;;;5024223;28;20254;-89
2021/06/29 07:30:30;;;;;;;3.42;3.13;;;20.50;99.90;;;;;;5038352;28;20101;-90
2021/06/29 07:32:58;;;;;;;4.15;2.85;;;20.60;99.90;;;;;;5024705;28;20059;-90
2021/06/29 07:35:25;;;;;;;3.03;2.83;;;20.60;99.90;;;;;;5010881;28;20597;-89
2021/06/29 07:37:51;;;;;;;3.03;2.70;;;20.70;99.90;;;;;;5023173;28;20025;-89
2021/06/29 07:40:18;;;;;;;2.80;2.60;;;20.80;99.90;;;;;;5009043;28;20065;-90
2021/06/29 07:42:44;;;;;;;4.80;3.38;;;20.70;99.90;;;;;;5023622;28;20033;-89
2021/06/29 07:45:11;;;;;;;3.20;2.75;;;20.80;99.90;;;;;;5017678;28;20178;-89
2021/06/29 07:47:37;;;;;;;3.80;3.13;;;21.10;99.90;;;;;;4997783;28;20041;-90
2021/06/29 07:50:06;;;;;;;3.63;3.33;;;21.30;99.90;;;;;;4993521;28;20033;-88
2021/06/29 07:52:32;;;;;;;2.95;2.65;;;21.40;99.90;;;;;;5021614;28;20084;-89
2021/06/29 07:54:58;;;;;;;3.53;2.92;;;21.50;99.90;;;;;;5014292;28;20044;-88
2021/06/29 07:57:24;;;;;;;3.05;2.85;;;21.50;99.90;;;;;;5011765;28;20037;-89
2021/06/29 07:59:49;;;;;;;3.13;2.83;;;21.50;99.90;;;;;;5019627;28;20128;-88
2021/06/29 08:02:15;;;;;;;5.20;2.95;;;21.30;99.90;;;;;;5033212;28;20113;-89
2021/06/29 08:04:43;;;;;;;3.15;2.95;;;21.20;99.90;;;;;;5001438;28;20025;-89
2021/06/29 08:07:09;;;;;;;3.67;3.35;;;21.10;99.90;;;;;;5022961;28;20086;-89
2021/06/29 08:09:37;;;;;;;3.30;2.70;;;21.20;99.90;;;;;;5030344;28;20017;-88
2021/06/29 08:12:05;;;;;;;3.13;2.83;;;21.10;99.90;;;;;;5015722;28;20026;-88
2021/06/29 08:14:31;;;;;;;3.08;2.67;;;21.20;99.90;;;;;;5013352;28;20095;-90
2021/06/29 08:16:57;;;;;;;4.60;2.72;;;21.30;99.90;;;;;;5014030;28;20477;-88
2021/06/29 08:19:23;;;;;;;3.47;3.17;;;21.60;99.90;;;;;;5000730;28;20674;-89
2021/06/29 08:21:49;;;;;;;3.08;2.72;;;22.10;99.90;;;;;;5011576;28;20117;-89
2021/06/29 08:24:15;;;;;;;2.42;2.30;;;22.30;99.90;;;;;;5016644;28;20120;-89
2021/06/29 08:26:42;;;;;;;2.42;2.22;;;22.70;99.90;;;;;;5018298;28;20018;-90
2021/06/29 08:29:09;;;;;;;2.90;2.70;;;22.60;99.90;;;;;;5027131;28;20030;-89
2021/06/29 08:31:36;;;;;;;2.88;2.67;;;22.50;99.90;;;;;;4985499;28;20117;-89
2021/06/29 08:34:02;;;;;;;2.78;2.58;;;22.40;99.90;;;;;;5014148;28;20041;-90
2021/06/29 08:36:30;;;;;;;2.50;2.40;;;22.40;99.90;;;;;;5007040;28;20028;-89
2021/06/29 08:38:57;;;;;;;2.60;2.40;;;22.60;99.90;;;;;;5029100;28;20026;-90
2021/06/29 08:41:23;;;;;;;2.70;2.50;;;23.00;99.90;;;;;;5034173;28;20021;-91
2021/06/29 08:43:50;;;;;;;2.60;2.50;;;23.50;99.90;;;;;;5015657;28;20026;-91
2021/06/29 08:46:16;;;;;;;2.35;2.10;;;24.00;99.90;;;;;;5015193;28;20468;-90
2021/06/29 08:48:42;;;;;;;2.08;1.98;;;24.40;99.90;;;;;;5015572;28;20040;-91
2021/06/29 08:51:08;;;;;;;2.25;2.15;;;24.50;99.90;;;;;;5031769;28;20025;-90
2021/06/29 08:53:35;;;;;;;2.25;1.98;;;24.30;99.90;;;;;;5028019;28;20026;-90
2021/06/29 08:56:02;;;;;;;2.67;2.50;;;24.00;99.90;;;;;;5031679;28;20030;-89
2021/06/29 08:58:31;;;;;;;2.20;2.10;;;23.60;99.90;;;;;;5029682;28;20120;-89
2021/06/29 09:00:57;;;;;;;2.28;2.17;;;23.20;99.90;;;;;;5015429;28;20128;-87
2021/06/29 09:03:23;;;;;;;2.58;2.40;;;22.90;99.90;;;;;;5020816;28;20129;-89
2021/06/29 09:05:51;;;;;;;2.42;2.22;;;22.60;99.90;;;;;;4981431;28;20026;-89
2021/06/29 09:08:18;;;;;;;2.13;2.03;;;22.50;99.90;;;;;;5034439;28;20480;-89
2021/06/29 09:11:11;;;;;;;2.95;2.17;;;22.40;99.90;;;;;;5020992;28;20025;-89
2021/06/29 09:13:38;;;;;;;2.30;2.15;;;22.40;99.90;;;;;;5021776;28;20116;-87
2021/06/29 09:16:06;;;;;;;2.40;2.20;;;22.50;99.90;;;;;;5013198;28;20042;-86
2021/06/29 09:18:35;;;;;;;2.47;2.28;;;22.60;99.90;;;;;;5021033;28;20092;-88
2021/06/29 09:21:03;;;;;;;2.70;2.50;;;22.80;99.90;;;;;;5009436;28;20033;-87
2021/06/29 09:23:48;;;;;;;2.80;2.40;;;22.80;99.90;;;;;;5000880;28;20036;-89
2021/06/29 09:26:16;;;;;;;2.92;2.60;;;22.80;99.90;;;;;;5012539;28;20116;-89
2021/06/29 09:28:47;;;;;;;5.70;2.42;;;22.80;99.90;;;;;;5043836;28;20105;-87
2021/06/29 09:31:15;;;;;;;2.53;2.28;;;23.00;99.90;;;;;;5028055;28;20037;-89
2021/06/29 09:33:44;;;;;;;2.50;2.30;;;23.00;99.90;;;;;;5036421;28;20030;-89
2021/06/29 09:36:18;;;;;;;2.33;2.20;;;23.20;99.90;;;;;;5010361;28;20064;-89
2021/06/29 09:38:46;;;;;;;2.70;2.38;;;23.30;99.90;;;;;;5012957;28;20272;-89
2021/06/29 09:41:17;;;;;;;2.10;2.00;;;23.30;99.90;;;;;;5008365;28;20602;-89
2021/06/29 09:43:56;;;;;;;2.38;2.28;;;23.40;99.90;;;;;;5008305;28;20041;-89
2021/06/29 09:46:25;;;;;;;2.92;1.80;;;23.30;99.90;;;;;;5008782;28;20052;-90
2021/06/29 09:48:55;;;;;;;3.70;1.90;;;23.40;99.90;;;;;;5023868;28;20025;-90
2021/06/29 09:51:26;;;;;;;2.20;2.10;;;23.50;99.90;;;;;;5030648;28;20068;-90
2021/06/29 09:53:55;;;;;;;2.58;2.42;;;23.60;99.90;;;;;;5012140;28;20041;-90
2021/06/29 09:56:24;;;;;;;2.22;2.13;;;23.60;99.90;;;;;;5030240;28;20037;-91
2021/06/29 09:58:52;;;;;;;2.50;2.33;;;23.50;99.90;;;;;;5030241;28;20040;-91
2021/06/29 10:01:20;;;;;;;2.40;2.22;;;23.50;99.90;;;;;;5030629;28;20056;-91
2021/06/29 10:03:51;;;;;;;2.40;2.30;;;23.40;99.90;;;;;;5029440;28;20082;-92
2021/06/29 10:06:29;;;;;;;2.00;1.90;;;23.50;99.90;;;;;;5030044;28;20029;-91
2021/06/29 10:09:06;;;;;;;2.40;2.20;;;23.50;99.90;;;;;;5012717;28;20029;-91
2021/06/29 10:11:37;;;;;;;3.05;2.78;;;23.60;99.90;;;;;;5029637;28;20468;-92
2021/06/29 10:14:18;;;;;;;2.50;2.30;;;23.60;99.90;;;;;;5030155;28;20057;-92
2021/06/29 10:16:52;;;;;;;2.60;2.40;;;23.70;99.90;;;;;;5040028;28;20029;-92
2021/06/29 10:21:55;;;;;;;2.20;2.10;;;24.10;99.90;;;;;;5029854;28;20044;-92
2021/06/29 10:24:24;;;;;;;1.67;1.58;;;24.10;99.90;;;;;;5027139;28;20120;-90
2021/06/29 10:26:53;;;;;;;2.00;1.90;;;24.10;99.90;;;;;;4977530;28;20406;-90
2021/06/29 10:29:21;;;;;;;2.28;2.15;;;24.10;99.90;;;;;;4992598;28;20147;-90
2021/06/29 10:32:07;;;;;;;2.40;2.30;;;24.10;99.90;;;;;;4994231;28;20042;-90
2021/06/29 10:34:34;;;;;;;2.38;1.95;;;23.90;99.90;;;;;;4992840;28;20034;-92
2021/06/29 10:37:00;;;;;;;2.10;2.00;;;23.90;99.90;;;;;;4993560;28;20034;-91
2021/06/29 10:39:28;;;;;;;2.17;1.98;;;23.90;99.90;;;;;;5003406;28;20037;-89
2021/06/29 10:42:03;;;;;;;1.88;1.77;;;24.00;99.90;;;;;;4990636;28;20038;-88
2021/06/29 10:44:38;;;;;;;1.88;1.77;;;23.90;99.90;;;;;;4999277;28;20033;-87
2021/06/29 10:47:30;;;;;;;1.75;1.65;;;23.90;99.90;;;;;;5023078;28;20083;-86
2021/06/29 10:50:03;;;;;;;1.90;1.80;;;23.80;99.90;;;;;;4992362;28;20103;-88
2021/06/29 10:52:33;;;;;;;1.80;1.70;;;23.60;99.90;;;;;;4978563;28;20037;-90
2021/06/29 10:55:17;;;;;;;2.00;1.90;;;23.50;99.90;;;;;;5024983;28;20025;-86
2021/06/29 10:57:48;;;;;;;2.10;1.90;;;23.40;99.90;;;;;;5012806;28;20061;-87
2021/06/29 11:00:20;;;;;;;1.90;1.80;;;23.50;99.90;;;;;;5012286;28;20030;-88
2021/06/29 11:03:06;;;;;;;2.15;1.50;;;23.60;99.90;;;;;;5012849;28;20029;-91
2021/06/29 11:05:40;;;;;;;1.77;1.67;;;23.60;99.90;;;;;;5026989;28;20041;-89
2021/06/29 11:08:15;;;;;;;2.05;1.70;;;23.70;99.90;;;;;;5013119;28;20022;-89
2021/06/29 11:11:09;;;;;;;1.60;1.50;;;23.80;99.90;;;;;;5010726;28;20516;-88
2021/06/29 11:13:54;;;;;;;1.70;1.60;;;23.80;99.90;;;;;;5005782;28;20029;-88
2021/06/29 11:16:55;;;;;;;1.80;1.70;;;23.70;99.90;;;;;;5036258;28;20045;-88
2021/06/29 11:19:41;;;;;;;1.67;1.58;;;23.80;99.90;;;;;;5038654;28;20455;-88
2021/06/29 11:22:27;;;;;;;;;;;23.80;99.90;;;;;;5026910;28;20056;-88
2021/06/29 11:25:04;;;;;;;1.98;1.88;;;23.70;99.90;;;;;;5019143;28;20315;-87
2021/06/29 11:28:01;;;;;;;1.98;1.88;;;23.70;99.90;;;;;;5036548;28;20133;-87
2021/06/29 11:30:59;;;;;;;2.20;2.00;;;23.90;99.90;;;;;;5029114;28;20644;-89
2021/06/29 11:33:44;;;;;;;1.60;1.50;;;24.00;99.90;;;;;;5011845;28;20056;-87
2021/06/29 11:36:25;;;;;;;1.98;1.88;;;23.90;99.90;;;;;;5020461;28;20056;-87
2021/06/29 11:38:57;;;;;;;1.83;1.73;;;23.90;99.90;;;;;;5043903;28;20034;-87
2021/06/29 11:41:33;;;;;;;3.22;1.92;;;23.90;99.90;;;;;;5026325;28;20048;-86
2021/06/29 11:44:18;;;;;;;1.98;1.88;;;24.00;99.90;;;;;;5026514;28;20045;-86
2021/06/29 11:47:00;;;;;;;1.80;1.70;;;24.10;99.90;;;;;;5036670;28;20029;-86
2021/06/29 11:49:48;;;;;;;2.13;2.03;;;24.20;99.90;;;;;;5038337;28;20061;-87
2021/06/29 11:52:15;;;;;;;2.78;1.75;;;24.10;99.90;;;;;;5020255;28;20036;-88
2021/06/29 11:54:51;;;;;;;2.00;1.80;;;24.10;99.90;;;;;;5023844;28;20040;-86
2021/06/29 11:57:17;;;;;;;1.98;1.88;;;24.20;99.90;;;;;;5035092;28;20041;-86
2021/06/29 11:59:43;;;;;;;1.98;1.88;;;24.40;99.90;;;;;;5023873;28;20033;-86
2021/06/29 12:02:12;;;;;;;2.10;1.90;;;24.70;99.90;;;;;;5049963;28;20655;-87
2021/06/29 12:05:06;;;;;;;2.05;1.83;;;25.30;99.90;;;;;;5031690;28;20033;-87
2021/06/29 12:08:05;;;;;;;1.75;1.65;;;25.60;99.90;;;;;;4988134;28;20041;-86
2021/06/29 12:10:44;;;;;;;2.10;2.00;;;25.70;99.90;;;;;;5030675;28;20044;-88
2021/06/29 12:13:21;;;;;;;1.95;1.85;;;25.50;99.90;;;;;;5035036;28;20037;-86
2021/06/29 12:15:50;;;;;;;1.75;1.48;;;25.00;99.90;;;;;;5033734;28;20508;-87
2021/06/29 12:18:22;;;;;;;1.63;1.52;;;25.10;99.90;;;;;;5038994;28;20037;-86
2021/06/29 12:20:57;;;;;;;2.70;1.60;;;25.50;99.90;;;;;;5012293;28;20048;-87
2021/06/29 12:23:26;;;;;;;1.58;1.48;;;25.80;99.90;;;;;;4995755;28;20093;-88
2021/06/29 12:25:57;;;;;;;1.60;1.50;;;25.90;99.90;;;;;;5022315;28;20030;-86
2021/06/29 12:28:28;;;;;;;1.45;1.35;;;25.80;99.90;;;;;;5001800;28;20559;-86
2021/06/29 12:30:59;;;;;;;1.55;1.45;;;25.80;99.90;;;;;;5045120;28;20029;-87
2021/06/29 12:33:28;;;;;;;1.73;1.63;;;25.70;99.90;;;;;;5033774;28;20042;-87
2021/06/29 12:36:09;;;;;;;1.48;1.38;;;25.60;99.90;;;;;;5017934;28;20037;-86
2021/06/29 12:38:37;;;;;;;1.60;1.50;;;25.60;99.90;;;;;;5023938;28;20063;-87
2021/06/29 12:41:13;;;;;;;3.70;1.67;;;25.40;99.90;;;;;;5000928;28;20029;-86
2021/06/29 12:44:00;;;;;;;1.75;1.50;;;25.20;99.90;;;;;;5035296;28;20411;-87
2021/06/29 12:46:27;;;;;;;1.65;1.55;;;25.10;99.90;;;;;;5033581;28;20041;-87
2021/06/29 12:49:10;;;;;;;1.60;1.50;;;25.10;99.90;;;;;;5041270;28;20098;-87
2021/06/29 12:51:56;;;;;;;3.50;1.63;;;25.20;99.90;;;;;;5021475;28;20025;-86
2021/06/29 12:54:23;;;;;;;1.67;1.58;;;25.60;99.90;;;;;;5005595;28;20038;-85
2021/06/29 12:56:50;;;;;;;1.40;1.30;;;26.00;99.90;;;;;;5015401;28;20128;-85
2021/06/29 12:59:19;;;;;;;1.55;1.45;;;26.20;99.90;;;;;;5022644;28;20111;-87
2021/06/29 13:01:48;;;;;;;1.77;1.50;;;26.20;99.90;;;;;;5012087;28;20033;-87
2021/06/29 13:04:15;;;;;;;1.75;1.65;;;26.10;99.90;;;;;;5033734;28;20027;-85
2021/06/29 13:06:43;;;;;;;1.70;1.60;;;25.80;99.90;;;;;;5030489;28;20065;-86